createdAt,value
2023-05-14T00:00:08.247Z,1397.00
2023-05-14T00:01:08.279Z,1371.00
2023-05-14T00:02:08.313Z,1382.00
2023-05-14T00:03:08.474Z,1355.00
2023-05-14T00:04:08.380Z,1350.00
2023-05-14T00:05:08.462Z,1337.00
2023-05-14T00:06:08.444Z,1329.00
2023-05-14T00:07:08.470Z,1331.00
2023-05-14T00:08:08.588Z,1332.00
2023-05-14T00:09:08.522Z,1310.00
2023-05-14T00:10:08.553Z,1275.00
2023-05-14T00:11:08.594Z,1280.00
2023-05-14T00:12:08.628Z,1280.00
2023-05-14T00:13:08.662Z,1281.00
2023-05-14T00:14:08.677Z,1286.00
2023-05-14T00:15:08.723Z,1275.00
2023-05-14T00:16:08.805Z,1268.00
2023-05-14T00:17:08.769Z,1281.00
2023-05-14T00:18:08.824Z,1270.00
2023-05-14T00:19:08.934Z,1273.00
2023-05-14T00:20:08.955Z,1274.00
2023-05-14T00:21:08.911Z,1259.00
2023-05-14T00:22:08.922Z,1273.00
2023-05-14T00:23:08.953Z,1276.00
2023-05-14T00:24:09.002Z,1301.00
2023-05-14T00:25:09.023Z,1304.00
2023-05-14T00:26:09.063Z,1310.00
2023-05-14T00:27:09.081Z,1296.00
2023-05-14T00:28:09.114Z,1274.00
2023-05-14T00:29:09.172Z,1301.00
2023-05-14T00:30:09.295Z,1317.00
2023-05-14T00:31:09.227Z,1287.00
2023-05-14T00:32:09.278Z,1304.00
2023-05-14T00:33:09.341Z,1308.00
2023-05-14T00:34:09.331Z,1288.00
2023-05-14T00:35:09.375Z,1277.00
2023-05-14T00:36:09.384Z,1289.00
2023-05-14T00:37:09.435Z,1265.00
2023-05-14T00:38:09.458Z,1259.00
2023-05-14T00:39:09.471Z,1260.00
2023-05-14T00:40:09.513Z,1252.00
2023-05-14T00:41:09.533Z,1229.00
2023-05-14T00:42:09.574Z,1220.00
2023-05-14T00:43:09.608Z,1220.00
2023-05-14T00:44:09.642Z,1231.00
2023-05-14T00:45:09.705Z,1221.00
2023-05-14T00:46:09.768Z,1209.00
2023-05-14T00:47:09.768Z,1212.00
2023-05-14T00:48:09.769Z,1207.00
2023-05-14T00:49:09.788Z,1210.00
2023-05-14T00:50:09.838Z,1221.00
2023-05-14T00:51:09.887Z,1238.00
2023-05-14T00:52:09.880Z,1244.00
2023-05-14T00:53:10.020Z,1242.00
2023-05-14T00:54:09.968Z,1240.00
2023-05-14T00:55:10.013Z,1240.00
2023-05-14T00:56:10.038Z,1229.00
2023-05-14T00:57:10.045Z,1225.00
2023-05-14T00:58:10.078Z,1220.00
2023-05-14T00:59:10.131Z,1214.00
2023-05-14T01:00:10.142Z,1218.00
2023-05-14T01:01:10.230Z,1222.00
2023-05-14T01:02:10.208Z,1223.00
2023-05-14T01:03:10.299Z,1200.00
2023-05-14T01:04:10.257Z,1206.00
2023-05-14T01:05:10.299Z,1203.00
2023-05-14T01:06:10.297Z,1199.00
2023-05-14T01:07:10.334Z,1196.00
2023-05-14T01:08:10.356Z,1194.00
2023-05-14T01:09:10.447Z,1183.00
2023-05-14T01:10:10.425Z,1189.00
2023-05-14T01:11:10.466Z,1176.00
2023-05-14T01:12:10.473Z,1189.00
2023-05-14T01:13:10.533Z,1179.00
2023-05-14T01:14:10.538Z,1191.00
2023-05-14T01:15:10.656Z,1196.00
2023-05-14T01:16:10.631Z,1198.00
2023-05-14T01:17:10.626Z,1197.00
2023-05-14T01:18:10.667Z,1183.00
2023-05-14T01:19:10.733Z,1192.00
2023-05-14T01:20:10.705Z,1176.00
2023-05-14T01:21:10.718Z,1188.00
2023-05-14T01:22:10.760Z,1190.00
2023-05-14T01:23:10.769Z,1199.00
2023-05-14T01:24:10.820Z,1187.00
2023-05-14T01:25:10.842Z,1186.00
2023-05-14T01:26:10.887Z,1214.00
2023-05-14T01:27:10.945Z,1205.00
2023-05-14T01:28:10.938Z,1214.00
2023-05-14T01:29:11.002Z,1210.00
2023-05-14T01:30:11.029Z,1183.00
2023-05-14T01:31:11.021Z,1220.00
2023-05-14T01:32:11.079Z,1214.00
2023-05-14T01:33:11.112Z,1210.00
2023-05-14T01:34:11.115Z,1210.00
2023-05-14T01:35:11.166Z,1209.00
2023-05-14T01:36:11.196Z,1212.00
2023-05-14T01:37:11.300Z,1199.00
2023-05-14T01:38:11.257Z,1205.00
2023-05-14T01:39:11.272Z,1204.00
2023-05-14T01:40:11.315Z,1217.00
2023-05-14T01:41:11.354Z,1212.00
2023-05-14T01:42:11.361Z,1196.00
2023-05-14T01:43:11.421Z,1212.00
2023-05-14T01:44:11.435Z,1206.00
2023-05-14T01:45:11.463Z,1214.00
2023-05-14T01:46:11.501Z,1223.00
2023-05-14T01:47:11.520Z,1213.00
2023-05-14T01:48:11.550Z,1213.00
2023-05-14T01:49:11.577Z,1205.00
2023-05-14T01:50:11.623Z,1238.00
2023-05-14T01:51:11.610Z,1206.00
2023-05-14T01:52:11.641Z,1188.00
2023-05-14T01:53:11.684Z,1199.00
2023-05-14T01:54:11.736Z,1204.00
2023-05-14T01:55:11.748Z,1207.00
2023-05-14T01:56:11.782Z,1200.00
2023-05-14T01:57:11.805Z,1181.00
2023-05-14T01:58:11.824Z,1188.00
2023-05-14T01:59:11.959Z,1182.00
2023-05-14T02:00:11.877Z,1187.00
2023-05-14T02:01:11.953Z,1179.00
2023-05-14T02:02:11.948Z,1162.00
2023-05-14T02:03:12.004Z,1167.00
2023-05-14T02:04:12.024Z,1148.00
2023-05-14T02:05:12.041Z,1142.00
2023-05-14T02:06:12.054Z,1148.00
2023-05-14T02:07:12.097Z,1148.00
2023-05-14T02:08:12.121Z,1145.00
2023-05-14T02:09:12.141Z,1136.00
2023-05-14T02:10:12.193Z,1147.00
2023-05-14T02:11:12.185Z,1149.00
2023-05-14T02:12:12.217Z,1143.00
2023-05-14T02:13:12.236Z,1158.00
2023-05-14T02:14:12.265Z,1154.00
2023-05-14T02:15:12.319Z,1135.00
2023-05-14T02:16:12.372Z,1138.00
2023-05-14T02:17:12.353Z,1133.00
2023-05-14T02:18:12.436Z,1138.00
2023-05-14T02:19:12.500Z,1130.00
2023-05-14T02:20:12.469Z,1142.00
2023-05-14T02:21:12.563Z,1125.00
2023-05-14T02:22:12.501Z,1129.00
2023-05-14T02:23:12.528Z,1122.00
2023-05-14T02:24:12.545Z,1140.00
2023-05-14T02:25:12.590Z,1150.00
2023-05-14T02:26:12.623Z,1139.00
2023-05-14T02:27:12.659Z,1122.00
2023-05-14T02:28:12.651Z,1128.00
2023-05-14T02:29:12.693Z,1125.00
2023-05-14T02:30:12.701Z,1138.00
2023-05-14T02:31:12.813Z,1119.00
2023-05-14T02:32:12.854Z,1117.00
2023-05-14T02:33:12.950Z,1121.00
2023-05-14T02:34:12.820Z,1103.00
2023-05-14T02:35:12.863Z,1118.00
2023-05-14T02:36:12.876Z,1111.00
2023-05-14T02:37:12.913Z,1107.00
2023-05-14T02:38:12.929Z,1096.00
2023-05-14T02:39:12.949Z,1107.00
2023-05-14T02:40:12.998Z,1103.00
2023-05-14T02:41:13.023Z,1109.00
2023-05-14T02:42:13.032Z,1104.00
2023-05-14T02:43:13.076Z,1098.00
2023-05-14T02:44:13.183Z,1103.00
2023-05-14T02:45:13.133Z,1100.00
2023-05-14T02:46:13.184Z,1089.00
2023-05-14T02:47:13.197Z,1094.00
2023-05-14T02:48:13.272Z,1094.00
2023-05-14T02:49:13.244Z,1082.00
2023-05-14T02:50:13.265Z,1080.00
2023-05-14T02:51:13.308Z,1104.00
2023-05-14T02:52:13.318Z,1074.00
2023-05-14T02:53:13.333Z,1077.00
2023-05-14T02:54:13.373Z,1082.00
2023-05-14T02:55:13.416Z,1072.00
2023-05-14T02:56:13.432Z,1072.00
2023-05-14T02:57:13.464Z,1082.00
2023-05-14T02:58:13.490Z,1089.00
2023-05-14T02:59:13.546Z,1090.00
2023-05-14T03:00:13.564Z,1094.00
2023-05-14T03:01:13.623Z,1079.00
2023-05-14T03:02:13.676Z,1071.00
2023-05-14T03:03:13.635Z,1068.00
2023-05-14T03:04:13.651Z,1075.00
2023-05-14T03:05:13.678Z,1064.00
2023-05-14T03:06:13.791Z,1081.00
2023-05-14T03:07:13.719Z,1080.00
2023-05-14T03:08:13.759Z,1063.00
2023-05-14T03:09:13.788Z,1064.00
2023-05-14T03:10:13.831Z,1067.00
2023-05-14T03:11:13.842Z,1057.00
2023-05-14T03:12:13.871Z,1056.00
2023-05-14T03:13:13.894Z,1060.00
2023-05-14T03:14:13.905Z,1060.00
2023-05-14T03:15:13.946Z,1081.00
2023-05-14T03:16:14.018Z,1061.00
2023-05-14T03:17:13.997Z,1076.00
2023-05-14T03:18:14.020Z,1083.00
2023-05-14T03:19:14.119Z,1076.00
2023-05-14T03:20:14.102Z,1078.00
2023-05-14T03:21:14.096Z,1075.00
2023-05-14T03:22:14.117Z,1067.00
2023-05-14T03:23:14.173Z,1076.00
2023-05-14T03:24:14.183Z,1059.00
2023-05-14T03:25:14.221Z,1075.00
2023-05-14T03:26:14.233Z,1085.00
2023-05-14T03:27:14.351Z,1058.00
2023-05-14T03:28:14.296Z,1075.00
2023-05-14T03:29:14.325Z,1087.00
2023-05-14T03:30:14.349Z,1070.00
2023-05-14T03:31:14.403Z,1074.00
2023-05-14T03:32:14.413Z,1068.00
2023-05-14T03:33:14.425Z,1063.00
2023-05-14T03:34:14.463Z,1056.00
2023-05-14T03:35:14.490Z,1067.00
2023-05-14T03:36:14.538Z,1055.00
2023-05-14T03:37:14.544Z,1055.00
2023-05-14T03:38:14.570Z,1079.00
2023-05-14T03:39:14.609Z,1048.00
2023-05-14T03:40:14.633Z,1066.00
2023-05-14T03:41:14.673Z,1052.00
2023-05-14T03:42:14.695Z,1051.00
2023-05-14T03:43:14.747Z,1067.00
2023-05-14T03:44:14.727Z,1063.00
2023-05-14T03:45:14.773Z,1062.00
2023-05-14T03:46:14.804Z,1064.00
2023-05-14T03:47:14.832Z,1049.00
2023-05-14T03:48:14.961Z,1043.00
2023-05-14T03:49:14.960Z,1043.00
2023-05-14T03:50:14.913Z,1052.00
2023-05-14T03:51:14.946Z,1035.00
2023-05-14T03:52:14.970Z,1036.00
2023-05-14T03:53:14.985Z,1039.00
2023-05-14T03:54:15.016Z,1033.00
2023-05-14T03:55:15.067Z,1033.00
2023-05-14T03:56:15.087Z,1026.00
2023-05-14T03:57:15.119Z,1023.00
2023-05-14T03:58:15.132Z,1028.00
2023-05-14T03:59:15.157Z,1021.00
2023-05-14T04:00:15.213Z,1024.00
2023-05-14T04:01:15.234Z,1020.00
2023-05-14T04:02:15.275Z,1017.00
2023-05-14T04:03:15.374Z,1022.00
2023-05-14T04:04:15.309Z,1020.00
2023-05-14T04:05:15.335Z,1022.00
2023-05-14T04:06:15.376Z,1026.00
2023-05-14T04:07:15.388Z,1022.00
2023-05-14T04:08:15.423Z,1025.00
2023-05-14T04:09:15.465Z,1023.00
2023-05-14T04:10:15.490Z,1019.00
2023-05-14T04:11:15.524Z,1027.00
2023-05-14T04:12:15.645Z,1010.00
2023-05-14T04:13:15.566Z,1012.00
2023-05-14T04:14:15.621Z,1017.00
2023-05-14T04:15:15.644Z,1020.00
2023-05-14T04:16:15.692Z,1027.00
2023-05-14T04:17:15.687Z,1032.00
2023-05-14T04:18:15.727Z,1014.00
2023-05-14T04:19:15.786Z,1005.00
2023-05-14T04:20:15.792Z,1001.00
2023-05-14T04:21:15.814Z,1022.00
2023-05-14T04:22:15.833Z,1022.00
2023-05-14T04:23:15.860Z,1021.00
2023-05-14T04:24:15.927Z,1013.00
2023-05-14T04:25:15.922Z,1009.00
2023-05-14T04:26:15.972Z,989.00
2023-05-14T04:27:15.987Z,986.00
2023-05-14T04:28:16.041Z,972.00
2023-05-14T04:29:16.052Z,978.00
2023-05-14T04:30:16.082Z,970.00
2023-05-14T04:31:16.132Z,982.00
2023-05-14T04:32:16.150Z,997.00
2023-05-14T04:33:16.159Z,985.00
2023-05-14T04:34:16.305Z,982.00
2023-05-14T04:35:16.218Z,985.00
2023-05-14T04:36:16.253Z,971.00
2023-05-14T04:37:16.279Z,963.00
2023-05-14T04:38:16.302Z,941.00
2023-05-14T04:39:16.333Z,942.00
2023-05-14T04:40:16.351Z,980.00
2023-05-14T04:41:16.417Z,963.00
2023-05-14T04:42:16.434Z,974.00
2023-05-14T04:43:16.451Z,979.00
2023-05-14T04:44:16.475Z,979.00
2023-05-14T04:45:16.518Z,956.00
2023-05-14T04:46:16.633Z,963.00
2023-05-14T04:47:16.573Z,956.00
2023-05-14T04:48:16.611Z,959.00
2023-05-14T04:49:16.620Z,963.00
2023-05-14T04:50:16.679Z,968.00
2023-05-14T04:51:16.689Z,959.00
2023-05-14T04:52:16.719Z,937.00
2023-05-14T04:53:16.748Z,944.00
2023-05-14T04:54:16.827Z,948.00
2023-05-14T04:55:16.802Z,934.00
2023-05-14T04:56:16.938Z,927.00
2023-05-14T04:57:16.878Z,949.00
2023-05-14T04:58:16.905Z,945.00
2023-05-14T04:59:16.952Z,944.00
2023-05-14T05:00:16.958Z,954.00
2023-05-14T05:01:17.058Z,940.00
2023-05-14T05:02:17.016Z,940.00
2023-05-14T05:03:17.075Z,937.00
2023-05-14T05:04:17.124Z,951.00
2023-05-14T05:05:17.096Z,938.00
2023-05-14T05:06:17.137Z,905.00
2023-05-14T05:07:17.163Z,930.00
2023-05-14T05:08:17.199Z,929.00
2023-05-14T05:09:17.221Z,912.00
2023-05-14T05:10:17.234Z,917.00
2023-05-14T05:11:17.258Z,941.00
2023-05-14T05:12:17.291Z,957.00
2023-05-14T05:13:17.391Z,921.00
2023-05-14T05:14:17.355Z,938.00
2023-05-14T05:15:17.361Z,936.00
2023-05-14T05:16:17.497Z,929.00
2023-05-14T05:17:17.434Z,940.00
2023-05-14T05:18:17.451Z,916.00
2023-05-14T05:19:17.674Z,918.00
2023-05-14T05:20:17.511Z,912.00
2023-05-14T05:21:17.542Z,896.00
2023-05-14T05:22:17.584Z,921.00
2023-05-14T05:23:17.591Z,897.00
2023-05-14T05:24:17.622Z,907.00
2023-05-14T05:25:17.666Z,896.00
2023-05-14T05:26:17.694Z,910.00
2023-05-14T05:27:17.722Z,910.00
2023-05-14T05:28:17.757Z,907.00
2023-05-14T05:29:17.768Z,897.00
2023-05-14T05:30:17.796Z,902.00
2023-05-14T05:31:19.802Z,918.00
2023-05-14T05:32:17.848Z,918.00
2023-05-14T05:33:17.892Z,903.00
2023-05-14T05:34:17.926Z,899.00
2023-05-14T05:35:17.951Z,886.00
2023-05-14T05:36:17.972Z,870.00
2023-05-14T05:37:17.995Z,892.00
2023-05-14T05:38:18.041Z,865.00
2023-05-14T05:39:18.068Z,858.00
2023-05-14T05:40:18.092Z,868.00
2023-05-14T05:41:18.125Z,886.00
2023-05-14T05:42:18.148Z,857.00
2023-05-14T05:43:18.167Z,845.00
2023-05-14T05:44:18.241Z,848.00
2023-05-14T05:45:18.236Z,841.00
2023-05-14T05:46:18.308Z,862.00
2023-05-14T05:47:18.329Z,836.00
2023-05-14T05:48:18.315Z,846.00
2023-05-14T05:49:18.341Z,848.00
2023-05-14T05:50:19.898Z,846.00
2023-05-14T05:51:18.399Z,827.00
2023-05-14T05:52:18.419Z,822.00
2023-05-14T05:53:18.469Z,847.00
2023-05-14T05:54:18.468Z,842.00
2023-05-14T05:55:18.529Z,868.00
2023-05-14T05:56:18.560Z,850.00
2023-05-14T05:57:18.584Z,845.00
2023-05-14T05:58:18.611Z,852.00
2023-05-14T05:59:18.627Z,829.00
2023-05-14T06:00:18.680Z,844.00
2023-05-14T06:01:18.711Z,849.00
2023-05-14T06:02:18.741Z,845.00
2023-05-14T06:03:18.801Z,832.00
2023-05-14T06:04:18.788Z,835.00
2023-05-14T06:05:18.830Z,834.00
2023-05-14T06:06:18.859Z,849.00
2023-05-14T06:07:18.916Z,835.00
2023-05-14T06:08:18.915Z,850.00
2023-05-14T06:09:18.939Z,843.00
2023-05-14T06:10:19.015Z,834.00
2023-05-14T06:11:19.036Z,825.00
2023-05-14T06:12:19.056Z,822.00
2023-05-14T06:13:19.065Z,837.00
2023-05-14T06:14:19.108Z,821.00
2023-05-14T06:15:19.130Z,802.00
2023-05-14T06:16:19.181Z,818.00
2023-05-14T06:17:19.255Z,827.00
2023-05-14T06:18:19.221Z,810.00
2023-05-14T06:19:19.374Z,794.00
2023-05-14T06:20:19.294Z,778.00
2023-05-14T06:21:19.304Z,757.00
2023-05-14T06:22:19.337Z,754.00
2023-05-14T06:23:19.496Z,755.00
2023-05-14T06:24:19.400Z,758.00
2023-05-14T06:25:19.482Z,761.00
2023-05-14T06:26:19.492Z,747.00
2023-05-14T06:27:19.512Z,757.00
2023-05-14T06:28:19.527Z,745.00
2023-05-14T06:29:19.573Z,772.00
2023-05-14T06:30:19.635Z,752.00
2023-05-14T06:31:19.650Z,748.00
2023-05-14T06:32:19.723Z,748.00
2023-05-14T06:33:20.698Z,749.00
2023-05-14T06:34:19.714Z,751.00
2023-05-14T06:35:19.758Z,753.00
2023-05-14T06:36:19.764Z,748.00
2023-05-14T06:37:19.792Z,740.00
2023-05-14T06:38:19.806Z,742.00
2023-05-14T06:39:19.852Z,749.00
2023-05-14T06:40:19.876Z,745.00
2023-05-14T06:41:19.898Z,746.00
2023-05-14T06:42:19.926Z,752.00
2023-05-14T06:43:19.975Z,731.00
2023-05-14T06:44:19.985Z,719.00
2023-05-14T06:45:20.024Z,720.00
2023-05-14T06:46:20.047Z,724.00
2023-05-14T06:47:20.073Z,719.00
2023-05-14T06:48:20.216Z,713.00
2023-05-14T06:49:20.131Z,715.00
2023-05-14T06:50:20.156Z,707.00
2023-05-14T06:51:20.194Z,727.00
2023-05-14T06:52:20.201Z,705.00
2023-05-14T06:53:20.238Z,721.00
2023-05-14T06:54:20.266Z,706.00
2023-05-14T06:55:20.275Z,724.00
2023-05-14T06:56:20.309Z,693.00
2023-05-14T06:57:20.332Z,705.00
2023-05-14T06:58:20.352Z,694.00
2023-05-14T06:59:20.406Z,693.00
2023-05-14T07:00:20.435Z,702.00
2023-05-14T07:01:20.486Z,714.00
2023-05-14T07:02:20.494Z,708.00
2023-05-14T07:03:20.527Z,692.00
2023-05-14T07:04:20.665Z,686.00
2023-05-14T07:05:20.588Z,681.00
2023-05-14T07:06:20.622Z,688.00
2023-05-14T07:07:20.695Z,685.00
2023-05-14T07:08:20.675Z,693.00
2023-05-14T07:09:20.699Z,690.00
2023-05-14T07:10:20.734Z,697.00
2023-05-14T07:11:20.785Z,717.00
2023-05-14T07:12:20.785Z,714.00
2023-05-14T07:13:20.814Z,722.00
2023-05-14T07:14:20.839Z,708.00
2023-05-14T07:15:20.880Z,715.00
2023-05-14T07:16:20.904Z,708.00
2023-05-14T07:17:21.014Z,715.00
2023-05-14T07:18:20.979Z,716.00
2023-05-14T07:19:21.010Z,732.00
2023-05-14T07:20:21.136Z,714.00
2023-05-14T07:21:21.059Z,731.00
2023-05-14T07:22:21.111Z,725.00
2023-05-14T07:23:21.139Z,728.00
2023-05-14T07:24:21.168Z,720.00
2023-05-14T07:25:21.200Z,702.00
2023-05-14T07:26:21.237Z,699.00
2023-05-14T07:27:21.259Z,713.00
2023-05-14T07:28:21.278Z,698.00
2023-05-14T07:29:21.304Z,693.00
2023-05-14T07:30:21.504Z,669.00
2023-05-14T07:31:21.406Z,683.00
2023-05-14T07:32:21.405Z,673.00
2023-05-14T07:33:21.421Z,677.00
2023-05-14T07:34:21.467Z,669.00
2023-05-14T07:35:21.461Z,668.00
2023-05-14T07:36:21.488Z,670.00
2023-05-14T07:37:23.735Z,657.00
2023-05-14T07:38:21.751Z,651.00
2023-05-14T07:39:21.775Z,657.00
2023-05-14T07:40:21.932Z,652.00
2023-05-14T07:41:21.815Z,653.00
2023-05-14T07:42:34.366Z,647.00
2023-05-14T07:43:22.830Z,647.00
2023-05-14T07:44:21.841Z,644.00
2023-05-14T07:45:21.829Z,648.00
2023-05-14T07:46:21.828Z,646.00
2023-05-14T07:47:21.864Z,653.00
2023-05-14T07:48:21.841Z,650.00
2023-05-14T07:49:21.788Z,649.00
2023-05-14T07:50:21.930Z,645.00
2023-05-14T07:51:21.772Z,642.00
2023-05-14T07:52:21.790Z,635.00
2023-05-14T07:53:21.771Z,634.00
2023-05-14T07:54:21.768Z,636.00
2023-05-14T07:55:21.754Z,639.00
2023-05-14T07:56:21.756Z,637.00
2023-05-14T07:57:21.739Z,638.00
2023-05-14T07:58:21.720Z,648.00
2023-05-14T07:59:21.760Z,635.00
2023-05-14T08:00:21.912Z,641.00
2023-05-14T08:01:21.726Z,637.00
2023-05-14T08:02:21.824Z,634.00
2023-05-14T08:03:21.814Z,638.00
2023-05-14T08:04:21.734Z,631.00
2023-05-14T08:05:21.713Z,631.00
2023-05-14T08:06:21.733Z,635.00
2023-05-14T08:07:21.742Z,623.00
2023-05-14T08:08:21.741Z,630.00
2023-05-14T08:09:21.757Z,634.00
2023-05-14T08:10:21.876Z,636.00
2023-05-14T08:11:21.813Z,630.00
2023-05-14T08:12:21.813Z,613.00
2023-05-14T08:13:21.811Z,615.00
2023-05-14T08:14:21.814Z,608.00
2023-05-14T08:15:21.850Z,615.00
2023-05-14T08:16:21.890Z,609.00
2023-05-14T08:17:21.893Z,603.00
2023-05-14T08:18:21.858Z,610.00
2023-05-14T08:19:21.963Z,620.00
2023-05-14T08:20:21.995Z,619.00
2023-05-14T08:21:21.898Z,624.00
2023-05-14T08:22:21.900Z,623.00
2023-05-14T08:23:21.891Z,622.00
2023-05-14T08:24:21.891Z,635.00
2023-05-14T08:25:21.910Z,618.00
2023-05-14T08:26:21.934Z,619.00
2023-05-14T08:27:21.907Z,624.00
2023-05-14T08:28:21.916Z,639.00
2023-05-14T08:29:21.897Z,666.00
2023-05-14T08:30:22.194Z,688.00
2023-05-14T08:31:21.951Z,656.00
2023-05-14T08:32:23.858Z,708.00
2023-05-14T08:33:21.908Z,757.00
2023-05-14T08:34:21.915Z,772.00
2023-05-14T08:35:21.906Z,806.00
2023-05-14T08:36:21.930Z,802.00
2023-05-14T08:37:21.917Z,756.00
2023-05-14T08:38:21.912Z,747.00
2023-05-14T08:39:21.898Z,757.00
2023-05-14T08:40:22.054Z,751.00
2023-05-14T08:41:21.907Z,706.00
2023-05-14T08:42:21.893Z,787.00
2023-05-14T08:43:21.903Z,799.00
2023-05-14T08:44:21.909Z,810.00
2023-05-14T08:45:21.942Z,873.00
2023-05-14T08:46:21.894Z,876.00
2023-05-14T08:47:21.886Z,864.00
2023-05-14T08:48:21.939Z,815.00
2023-05-14T08:49:21.883Z,785.00
2023-05-14T08:50:23.303Z,817.00
2023-05-14T08:51:21.899Z,831.00
2023-05-14T08:52:21.879Z,849.00
2023-05-14T08:53:21.872Z,894.00
2023-05-14T08:54:21.872Z,911.00
2023-05-14T08:55:21.881Z,933.00
2023-05-14T08:56:21.884Z,946.00
2023-05-14T08:57:21.879Z,936.00
2023-05-14T08:58:21.902Z,912.00
2023-05-14T08:59:21.885Z,905.00
2023-05-14T09:00:22.064Z,891.00
2023-05-14T09:01:21.870Z,894.00
2023-05-14T09:02:21.862Z,913.00
2023-05-14T09:03:21.898Z,918.00
2023-05-14T09:04:21.857Z,920.00
2023-05-14T09:05:21.862Z,918.00
2023-05-14T09:06:21.875Z,933.00
2023-05-14T09:07:21.872Z,914.00
2023-05-14T09:08:21.919Z,900.00
2023-05-14T09:09:21.924Z,902.00
2023-05-14T09:10:22.090Z,909.00
2023-05-14T09:11:21.938Z,903.00
2023-05-14T09:12:21.988Z,915.00
2023-05-14T09:13:21.993Z,914.00
2023-05-14T09:14:22.020Z,897.00
2023-05-14T09:15:22.051Z,895.00
2023-05-14T09:16:22.146Z,891.00
2023-05-14T09:17:22.136Z,889.00
2023-05-14T09:18:22.093Z,876.00
2023-05-14T09:19:22.112Z,886.00
2023-05-14T09:20:22.439Z,861.00
2023-05-14T09:21:22.155Z,847.00
2023-05-14T09:22:22.222Z,836.00
2023-05-14T09:23:22.216Z,845.00
2023-05-14T09:24:22.253Z,866.00
2023-05-14T09:25:22.284Z,852.00
2023-05-14T09:26:22.322Z,842.00
2023-05-14T09:27:22.360Z,857.00
2023-05-14T09:28:22.378Z,849.00
2023-05-14T09:29:22.434Z,842.00
2023-05-14T09:30:22.663Z,862.00
2023-05-14T09:31:22.599Z,861.00
2023-05-14T09:32:22.710Z,864.00
2023-05-14T09:33:22.682Z,855.00
2023-05-14T09:34:22.735Z,862.00
2023-05-14T09:35:22.782Z,845.00
2023-05-14T09:36:22.859Z,837.00
2023-05-14T09:37:22.932Z,847.00
2023-05-14T09:38:22.964Z,852.00
2023-05-14T09:39:23.041Z,858.00
2023-05-14T09:40:23.551Z,849.00
2023-05-14T09:41:23.194Z,838.00
2023-05-14T09:42:23.228Z,842.00
2023-05-14T09:43:23.298Z,843.00
2023-05-14T09:44:23.359Z,847.00
2023-05-14T09:45:23.392Z,862.00
2023-05-14T09:46:23.427Z,864.00
2023-05-14T09:47:23.559Z,863.00
2023-05-14T09:48:23.583Z,867.00
2023-05-14T09:49:23.633Z,881.00
2023-05-14T09:50:23.833Z,890.00
2023-05-14T09:51:23.750Z,868.00
2023-05-14T09:52:23.812Z,861.00
2023-05-14T09:53:23.879Z,856.00
2023-05-14T09:54:23.930Z,843.00
2023-05-14T09:55:24.010Z,871.00
2023-05-14T09:56:24.080Z,862.00
2023-05-14T09:57:24.125Z,846.00
2023-05-14T09:58:24.167Z,855.00
2023-05-14T09:59:24.243Z,839.00
2023-05-14T10:00:24.453Z,843.00
2023-05-14T10:01:24.387Z,846.00
2023-05-14T10:02:24.526Z,850.00
2023-05-14T10:03:24.481Z,855.00
2023-05-14T10:04:24.589Z,863.00
2023-05-14T10:05:24.627Z,846.00
2023-05-14T10:06:24.674Z,846.00
2023-05-14T10:07:24.795Z,841.00
2023-05-14T10:08:24.788Z,867.00
2023-05-14T10:09:24.868Z,836.00
2023-05-14T10:10:25.138Z,824.00
2023-05-14T10:11:24.986Z,816.00
2023-05-14T10:12:25.033Z,820.00
2023-05-14T10:13:25.099Z,811.00
2023-05-14T10:14:25.178Z,823.00
2023-05-14T10:15:25.231Z,826.00
2023-05-14T10:16:25.329Z,805.00
2023-05-14T10:17:25.419Z,807.00
2023-05-14T10:18:25.449Z,806.00
2023-05-14T10:19:25.566Z,810.00
2023-05-14T10:20:25.621Z,782.00
2023-05-14T10:21:25.600Z,793.00
2023-05-14T10:22:25.652Z,793.00
2023-05-14T10:23:25.702Z,796.00
2023-05-14T10:24:25.786Z,785.00
2023-05-14T10:25:25.829Z,797.00
2023-05-14T10:26:25.902Z,793.00
2023-05-14T10:27:25.976Z,759.00
2023-05-14T10:28:26.033Z,764.00
2023-05-14T10:29:26.090Z,782.00
2023-05-14T10:30:26.299Z,764.00
2023-05-14T10:31:26.218Z,790.00
2023-05-14T10:32:26.326Z,786.00
2023-05-14T10:33:26.336Z,785.00
2023-05-14T10:34:26.389Z,793.00
2023-05-14T10:35:26.449Z,807.00
2023-05-14T10:36:26.513Z,800.00
2023-05-14T10:37:26.577Z,778.00
2023-05-14T10:38:26.662Z,785.00
2023-05-14T10:39:26.780Z,763.00
2023-05-14T10:40:26.890Z,754.00
2023-05-14T10:41:26.810Z,756.00
2023-05-14T10:42:26.881Z,758.00
2023-05-14T10:43:26.915Z,762.00
2023-05-14T10:44:27.010Z,756.00
2023-05-14T10:45:27.052Z,770.00
2023-05-14T10:46:27.188Z,762.00
2023-05-14T10:47:27.162Z,770.00
2023-05-14T10:48:27.221Z,766.00
2023-05-14T10:49:39.740Z,752.00
2023-05-14T10:50:28.308Z,753.00
2023-05-14T10:51:27.320Z,751.00
2023-05-14T10:52:27.287Z,746.00
2023-05-14T10:53:27.274Z,742.00
2023-05-14T10:54:27.270Z,747.00
2023-05-14T10:55:27.258Z,756.00
2023-05-14T10:56:27.235Z,743.00
2023-05-14T10:57:27.247Z,739.00
2023-05-14T10:58:27.236Z,727.00
2023-05-14T10:59:27.273Z,747.00
2023-05-14T11:00:27.328Z,721.00
2023-05-14T11:01:27.424Z,751.00
2023-05-14T11:02:27.520Z,760.00
2023-05-14T11:03:27.525Z,740.00
2023-05-14T11:04:27.579Z,750.00
2023-05-14T11:05:27.681Z,751.00
2023-05-14T11:06:27.694Z,750.00
2023-05-14T11:07:27.787Z,743.00
2023-05-14T11:08:29.386Z,749.00
2023-05-14T11:09:27.881Z,731.00
2023-05-14T11:10:27.921Z,724.00
2023-05-14T11:11:28.002Z,730.00
2023-05-14T11:12:28.069Z,749.00
2023-05-14T11:13:28.121Z,741.00
2023-05-14T11:14:28.211Z,712.00
2023-05-14T11:15:28.262Z,720.00
2023-05-14T11:16:28.328Z,712.00
2023-05-14T11:17:28.406Z,719.00
2023-05-14T11:18:28.441Z,716.00
2023-05-14T11:19:28.474Z,713.00
2023-05-14T11:20:28.545Z,708.00
2023-05-14T11:21:28.629Z,711.00
2023-05-14T11:22:28.685Z,701.00
2023-05-14T11:23:28.706Z,692.00
2023-05-14T11:24:28.780Z,679.00
2023-05-14T11:25:28.844Z,703.00
2023-05-14T11:26:28.944Z,709.00
2023-05-14T11:27:28.962Z,717.00
2023-05-14T11:28:29.013Z,691.00
2023-05-14T11:29:29.068Z,693.00
2023-05-14T11:30:29.113Z,694.00
2023-05-14T11:31:29.188Z,707.00
2023-05-14T11:32:29.238Z,696.00
2023-05-14T11:33:29.290Z,698.00
2023-05-14T11:34:29.353Z,708.00
2023-05-14T11:35:29.413Z,732.00
2023-05-14T11:36:29.483Z,729.00
2023-05-14T11:37:29.542Z,715.00
2023-05-14T11:38:29.588Z,723.00
2023-05-14T11:39:29.637Z,717.00
2023-05-14T11:40:29.697Z,743.00
2023-05-14T11:41:29.774Z,743.00
2023-05-14T11:42:29.828Z,731.00
2023-05-14T11:43:29.900Z,749.00
2023-05-14T11:44:29.999Z,800.00
2023-05-14T11:45:30.096Z,786.00
2023-05-14T11:46:30.186Z,775.00
2023-05-14T11:47:30.185Z,762.00
2023-05-14T11:48:30.204Z,776.00
2023-05-14T11:49:30.273Z,776.00
2023-05-14T11:50:30.349Z,756.00
2023-05-14T11:51:30.393Z,802.00
2023-05-14T11:52:30.476Z,806.00
2023-05-14T11:53:30.541Z,817.00
2023-05-14T11:54:30.606Z,820.00
2023-05-14T11:55:30.640Z,800.00
2023-05-14T11:56:30.707Z,806.00
2023-05-14T11:57:30.780Z,786.00
2023-05-14T11:58:30.842Z,766.00
2023-05-14T11:59:30.886Z,781.00
2023-05-14T12:00:30.959Z,724.00
2023-05-14T12:01:30.998Z,737.00
2023-05-14T12:02:31.110Z,714.00
2023-05-14T12:03:31.251Z,686.00
2023-05-14T12:04:31.263Z,658.00
2023-05-14T12:05:31.276Z,623.00
2023-05-14T12:06:31.313Z,605.00
2023-05-14T12:07:31.381Z,594.00
2023-05-14T12:08:31.494Z,592.00
2023-05-14T12:09:31.492Z,575.00
2023-05-14T12:10:31.555Z,552.00
2023-05-14T12:11:31.626Z,545.00
2023-05-14T12:12:31.664Z,532.00
2023-05-14T12:13:31.739Z,535.00
2023-05-14T12:14:31.786Z,546.00
2023-05-14T12:15:31.823Z,557.00
2023-05-14T12:16:31.963Z,543.00
2023-05-14T12:17:31.975Z,555.00
2023-05-14T12:18:32.155Z,563.00
2023-05-14T12:19:32.078Z,558.00
2023-05-14T12:20:32.099Z,560.00